AMX746 KORD-MMMX
Flight info
| Callsign | AMX746 |
|---|---|
| Flight time | N/A |
| Altitude | 34000 |
| Route | ACITO DCT ADELL DCT ARLYN DCT STL J101 LIT/N0472F360 J101 IAH J29 PSX J177 TAM UT100 ENAGA ENAGA3A |
| Aircraft | B738/M-SDE2E3FGHIRWXY/LB1 |
Departure
| Time | 2026-05-06 21:37 |
|---|---|
| Airport | Chicago O'Hare International Airport (KORD) |
Arrival
| Time | N/A |
|---|---|
| Airport | Mexico City Benito Juárez International Airport (MMMX) |
| Time | Latitude | Longitude | Altitude | Speed | Heading |
|---|---|---|---|---|---|
| 2026-05-06 21:12 | 41.97307 | -87.90398 | 665 ft | 0 kts | 91° |
| 2026-05-06 21:29 | 41.97308 | -87.90428 | 665 ft | 3 kts | 91° |
| 2026-05-06 21:29 | 41.97308 | -87.90460 | 665 ft | 3 kts | 91° |
| 2026-05-06 21:29 | 41.97309 | -87.90482 | 665 ft | 0 kts | 92° |
| 2026-05-06 21:30 | 41.97304 | -87.90472 | 665 ft | 2 kts | 154° |
| 2026-05-06 21:31 | 41.97269 | -87.90469 | 665 ft | 6 kts | 179° |
| 2026-05-06 21:31 | 41.97222 | -87.90465 | 665 ft | 6 kts | 153° |
| 2026-05-06 21:31 | 41.97191 | -87.90426 | 665 ft | 7 kts | 166° |
| 2026-05-06 21:31 | 41.97141 | -87.90405 | 665 ft | 8 kts | 125° |
| 2026-05-06 21:32 | 41.97137 | -87.90314 | 665 ft | 11 kts | 90° |
| 2026-05-06 21:32 | 41.97135 | -87.90008 | 661 ft | 20 kts | 92° |
| 2026-05-06 21:32 | 41.97158 | -87.89812 | 658 ft | 23 kts | 66° |
| 2026-05-06 21:33 | 41.97232 | -87.89623 | 655 ft | 19 kts | 58° |
| 2026-05-06 21:33 | 41.97207 | -87.89515 | 655 ft | 13 kts | 122° |
| 2026-05-06 21:33 | 41.97194 | -87.89391 | 655 ft | 14 kts | 87° |
| 2026-05-06 21:33 | 41.97195 | -87.89246 | 656 ft | 16 kts | 88° |
| 2026-05-06 21:34 | 41.97194 | -87.89086 | 655 ft | 18 kts | 88° |
| 2026-05-06 21:34 | 41.97195 | -87.88910 | 655 ft | 19 kts | 90° |
| 2026-05-06 21:34 | 41.97194 | -87.88715 | 655 ft | 21 kts | 90° |
| 2026-05-06 21:34 | 41.97194 | -87.88516 | 655 ft | 14 kts | 89° |
| 2026-05-06 21:35 | 41.97168 | -87.88408 | 655 ft | 11 kts | 85° |
| 2026-05-06 21:35 | 41.97170 | -87.88298 | 655 ft | 13 kts | 90° |
| 2026-05-06 21:35 | 41.97170 | -87.88159 | 652 ft | 16 kts | 86° |
| 2026-05-06 21:35 | 41.97131 | -87.88036 | 652 ft | 15 kts | 177° |
| 2026-05-06 21:36 | 41.97016 | -87.88034 | 653 ft | 16 kts | 179° |
| 2026-05-06 21:36 | 41.96927 | -87.88060 | 652 ft | 11 kts | 213° |
| 2026-05-06 21:36 | 41.96911 | -87.88076 | 653 ft | 0 kts | 218° |
| 2026-05-06 21:36 | 41.96889 | -87.88100 | 653 ft | 24 kts | 222° |
| 2026-05-06 21:37 | 41.96580 | -87.88481 | 656 ft | 93 kts | 221° |
| 2026-05-06 21:37 | 41.95940 | -87.89239 | 657 ft | 150 kts | 223° |
| 2026-05-06 21:37 | 41.95110 | -87.90178 | 1122 ft | 156 kts | 222° |
| 2026-05-06 21:37 | 41.94247 | -87.91151 | 1497 ft | 174 kts | 224° |
| 2026-05-06 21:38 | 41.93281 | -87.92208 | 2113 ft | 184 kts | 214° |
| 2026-05-06 21:38 | 41.92091 | -87.92959 | 2525 ft | 201 kts | 205° |
| 2026-05-06 21:38 | 41.90731 | -87.93594 | 2916 ft | 215 kts | 204° |
| 2026-05-06 21:38 | 41.89270 | -87.94288 | 3323 ft | 227 kts | 205° |
| 2026-05-06 21:39 | 41.87769 | -87.95029 | 3706 ft | 239 kts | 204° |
| 2026-05-06 21:39 | 41.86180 | -87.95815 | 4247 ft | 244 kts | 204° |
| 2026-05-06 21:39 | 41.84593 | -87.96590 | 4853 ft | 246 kts | 204° |
| 2026-05-06 21:39 | 41.82983 | -87.97377 | 5429 ft | 249 kts | 204° |
| 2026-05-06 21:40 | 41.81379 | -87.98163 | 6038 ft | 249 kts | 204° |
| 2026-05-06 21:40 | 41.79730 | -87.98971 | 6563 ft | 256 kts | 204° |
| 2026-05-06 21:40 | 41.78046 | -87.99795 | 7273 ft | 258 kts | 204° |
| 2026-05-06 21:40 | 41.76338 | -88.00632 | 7742 ft | 271 kts | 204° |
| 2026-05-06 21:41 | 41.74538 | -88.01517 | 8330 ft | 278 kts | 204° |
| 2026-05-06 21:41 | 41.72741 | -88.02392 | 9105 ft | 277 kts | 204° |
| 2026-05-06 21:41 | 41.70916 | -88.03280 | 9791 ft | 279 kts | 204° |
| 2026-05-06 21:41 | 41.69099 | -88.04164 | 10446 ft | 283 kts | 205° |
| 2026-05-06 21:42 | 41.67207 | -88.05093 | 10785 ft | 298 kts | 205° |
| 2026-05-06 21:42 | 41.65249 | -88.06057 | 11181 ft | 310 kts | 205° |
| 2026-05-06 21:42 | 41.64035 | -88.06652 | 11421 ft | 318 kts | 205° |